Time;durP1;ratioP1;P1;durP2;ratioP2;P2;SDS_P1;SDS_P2;PMS_P1;PMS_P2;Temp;Humidity;BMP_temperature;BMP_pressure;BME280_temperature;BME280_humidity;BME280_pressure;Samples;Min_cycle;Max_cycle;Signal;HPM_P1;HPM_P2
2021/11/21 00:03:00;;;;;;;1.48;0.20;;;;;;;9.62;100.00;100052.44;5086729;28;20130;-57
2021/11/21 00:06:03;;;;;;;0.50;0.50;;;;;;;9.59;100.00;100058.94;5091863;28;20563;-57
2021/11/21 00:09:06;;;;;;;0.38;0.38;;;;;;;9.58;100.00;100049.03;5076039;28;20094;-57
2021/11/21 00:12:10;;;;;;;1.70;0.70;;;;;;;9.63;100.00;100059.53;5071568;28;20530;-57
2021/11/21 00:15:13;;;;;;;2.10;0.30;;;;;;;9.46;100.00;100073.00;5072143;28;20102;-57
2021/11/21 00:18:16;;;;;;;1.23;0.88;;;;;;;9.38;100.00;100070.94;5079993;28;20561;-57
2021/11/21 00:21:19;;;;;;;0.20;0.20;;;;;;;9.57;100.00;100066.97;5077427;28;20506;-57
2021/11/21 00:24:22;;;;;;;0.63;0.63;;;;;;;9.59;100.00;100056.16;5075493;28;20040;-57
2021/11/21 00:27:25;;;;;;;15.68;0.77;;;;;;;9.64;100.00;100069.41;5073718;28;20047;-57
2021/11/21 00:30:28;;;;;;;0.75;0.30;;;;;;;9.63;100.00;100063.09;5073955;28;20055;-57
2021/11/21 00:33:32;;;;;;;0.28;0.28;;;;;;;9.51;100.00;100063.22;5074320;28;20117;-57
2021/11/21 00:36:35;;;;;;;0.40;0.40;;;;;;;9.46;100.00;100061.09;5083652;28;20042;-57
2021/11/21 00:39:38;;;;;;;0.50;0.43;;;;;;;9.42;100.00;100066.03;5073762;28;20451;-57
2021/11/21 00:42:41;;;;;;;0.98;0.93;;;;;;;9.33;100.00;100077.13;5093384;28;20059;-57
2021/11/21 00:45:45;;;;;;;0.20;0.20;;;;;;;9.33;100.00;100068.81;5093168;28;20051;-58
2021/11/21 00:48:48;;;;;;;1.85;0.50;;;;;;;9.30;100.00;100069.72;5082755;28;20105;-57
2021/11/21 00:51:52;;;;;;;4.45;1.42;;;;;;;9.24;100.00;100077.13;5100746;28;20800;-57
2021/11/21 00:55:07;;;;;;;0.45;0.40;;;;;;;9.22;100.00;100063.69;5073446;28;20047;-57
2021/11/21 00:58:11;;;;;;;0.10;0.10;;;;;;;9.25;100.00;100073.88;5074542;28;20098;-57
2021/11/21 01:01:15;;;;;;;0.20;0.20;;;;;;;9.23;100.00;100076.34;5075015;28;20186;-57
2021/11/21 01:04:19;;;;;;;0.15;0.15;;;;;;;9.18;100.00;100078.97;5074776;28;20038;-57
2021/11/21 01:07:24;;;;;;;0.50;0.50;;;;;;;9.08;100.00;100070.63;5074748;28;20039;-57
2021/11/21 01:10:28;;;;;;;1.25;0.65;;;;;;;8.93;100.00;100077.22;5074448;28;20070;-57
2021/11/21 01:13:31;;;;;;;0.52;0.47;;;;;;;8.89;100.00;100082.91;5074499;28;20361;-57
2021/11/21 01:16:35;;;;;;;0.10;0.05;;;;;;;8.86;100.00;100067.16;5081889;28;20082;-57
2021/11/21 01:19:38;;;;;;;0.17;0.17;;;;;;;8.78;100.00;100073.47;5078644;28;20514;-57
2021/11/21 01:22:42;;;;;;;0.35;0.30;;;;;;;8.67;100.00;100090.53;5074268;28;20051;-57
2021/11/21 01:25:47;;;;;;;10.45;0.30;;;;;;;8.75;100.00;100085.50;5090344;28;20089;-56
2021/11/21 01:28:50;;;;;;;5.05;0.40;;;;;;;8.75;100.00;100089.03;5072413;28;20043;-57
2021/11/21 01:31:54;;;;;;;0.32;0.32;;;;;;;8.68;100.00;100099.66;5070299;28;20047;-57
2021/11/21 01:34:57;;;;;;;0.10;0.10;;;;;;;8.70;100.00;100089.66;5081776;28;20515;-57
2021/11/21 01:38:01;;;;;;;0.10;0.10;;;;;;;8.65;100.00;100097.78;5075535;28;20039;-57
2021/11/21 01:41:04;;;;;;;0.10;0.10;;;;;;;8.61;100.00;100103.47;5074056;28;20051;-56
2021/11/21 01:44:09;;;;;;;0.10;0.10;;;;;;;8.62;100.00;100099.47;5090361;28;20093;-57
2021/11/21 01:47:12;;;;;;;0.10;0.10;;;;;;;8.51;100.00;100095.56;5073705;28;20043;-56
2021/11/21 01:50:36;;;;;;;1.63;0.32;;;;;;;8.30;100.00;100094.38;5090042;28;20093;-56
2021/11/21 01:53:39;;;;;;;0.20;0.20;;;;;;;8.20;100.00;100092.75;5087065;28;20047;-56
2021/11/21 01:56:45;;;;;;;0.10;0.10;;;;;;;8.16;100.00;100103.22;5073385;28;20039;-56
2021/11/21 01:59:48;;;;;;;0.10;0.10;;;;;;;8.10;100.00;100108.56;5072871;28;20361;-56
2021/11/21 02:03:05;;;;;;;;;;;;;;;;;;;;;
2021/11/21 02:06:36;;;;;;;;;;;;;;;;;;;;;
2021/11/21 02:09:42;;;;;;;0.25;0.25;;;;;;;8.23;100.00;100116.78;5085855;28;20042;-56
2021/11/21 02:13:00;;;;;;;0.20;0.20;;;;;;;8.21;100.00;100124.81;5072961;28;20439;-56
2021/11/21 02:16:10;;;;;;;0.10;0.10;;;;;;;8.11;100.00;100125.97;5072001;28;20135;-56
2021/11/21 02:28:22;;;;;;;;;;;;;;;;;;;;;
2021/11/21 02:31:39;;;;;;;;;;;;;;;;;;;;;
2021/11/21 02:34:53;;;;;;;4.38;0.38;;;;;;;7.40;100.00;100117.41;5072813;28;20089;-58
2021/11/21 02:38:09;;;;;;;;;;;;;;;;;;;;;
2021/11/21 02:41:30;;;;;;;;;;;;;;;;;;;;;
2021/11/21 02:44:48;;;;;;;;;;;;;;;;;;;;;
2021/11/21 02:47:58;;;;;;;0.15;0.15;;;;;;;7.26;100.00;100112.34;5032525;28;20073;-56
2021/11/21 02:51:27;;;;;;;;;;;;;;;;;;;;;
2021/11/21 02:54:35;;;;;;;0.20;0.20;;;;;;;7.14;100.00;100121.44;5032413;28;20048;-56
2021/11/21 02:57:50;;;;;;;;;;;;;;;;;;;;;
2021/11/21 03:00:55;;;;;;;9.63;0.68;;;;;;;7.04;100.00;100122.56;5032057;28;20132;-59
2021/11/21 03:03:57;;;;;;;0.20;0.20;;;;;;;6.99;100.00;100136.19;5045464;28;20040;-57
2021/11/21 03:07:00;;;;;;;0.30;0.30;;;;;;;6.97;100.00;100128.34;5036967;28;20040;-56
2021/11/21 03:10:05;;;;;;;0.10;0.10;;;;;;;6.89;100.00;100136.09;5051736;28;20167;-57
2021/11/21 03:13:08;;;;;;;0.20;0.20;;;;;;;6.84;100.00;100141.41;5032560;28;20101;-56
2021/11/21 03:16:12;;;;;;;1.00;0.85;;;;;;;6.85;100.00;100123.56;5032382;28;20084;-56
2021/11/21 03:19:15;;;;;;;0.43;0.43;;;;;;;6.85;100.00;100126.34;5032643;28;20041;-57
2021/11/21 03:22:18;;;;;;;0.20;0.20;;;;;;;6.81;100.00;100120.16;5047552;28;20044;-57
2021/11/21 03:25:22;;;;;;;0.20;0.20;;;;;;;6.78;100.00;100115.47;5036994;28;20051;-57
2021/11/21 03:28:25;;;;;;;0.28;0.28;;;;;;;6.82;100.00;100127.25;5047541;28;20056;-57
2021/11/21 03:31:28;;;;;;;5.15;0.55;;;;;;;6.77;100.00;100130.56;5009100;28;20831;-57
2021/11/21 03:34:31;;;;;;;0.20;0.20;;;;;;;6.66;100.00;100133.66;5008122;28;20345;-57
2021/11/21 03:37:36;;;;;;;0.10;0.00;;;;;;;6.68;100.00;100124.91;5016948;28;20094;-56
2021/11/21 03:40:39;;;;;;;0.20;0.20;;;;;;;6.59;100.00;100135.84;5047542;28;20060;-56
2021/11/21 03:43:42;;;;;;;0.30;0.30;;;;;;;6.56;100.00;100136.75;5048635;28;20779;-57
2021/11/21 03:46:45;;;;;;;0.90;0.60;;;;;;;6.48;100.00;100135.38;5065973;28;20039;-56
2021/11/21 03:49:47;;;;;;;0.30;0.30;;;;;;;6.34;100.00;100130.28;5068374;28;20085;-56
2021/11/21 03:52:50;;;;;;;0.25;0.25;;;;;;;6.22;100.00;100133.78;5052595;28;20094;-56
2021/11/21 03:55:54;;;;;;;0.47;0.40;;;;;;;6.16;100.00;100124.50;5058075;28;20101;-56
2021/11/21 03:58:56;;;;;;;0.22;0.22;;;;;;;6.05;100.00;100120.06;5073815;28;20059;-56
2021/11/21 04:02:00;;;;;;;0.20;0.20;;;;;;;6.04;100.00;100132.31;5065580;28;20055;-57
2021/11/21 04:05:03;;;;;;;0.40;0.40;;;;;;;6.08;100.00;100130.25;5070946;28;21261;-56
2021/11/21 04:08:07;;;;;;;0.45;0.45;;;;;;;6.06;100.00;100132.66;5075020;28;20028;-56
2021/11/21 04:11:11;;;;;;;0.20;0.20;;;;;;;6.04;100.00;100146.13;5072315;28;20035;-57
2021/11/21 04:14:14;;;;;;;0.47;0.47;;;;;;;6.00;100.00;100137.16;5073494;28;20453;-56
2021/11/21 04:17:18;;;;;;;1.95;0.80;;;;;;;5.90;100.00;100138.25;5057707;28;20067;-56
2021/11/21 04:20:21;;;;;;;0.10;0.10;;;;;;;5.85;100.00;100144.31;5073217;28;20113;-57
2021/11/21 04:23:28;;;;;;;0.20;0.20;;;;;;;5.83;100.00;100145.91;5070949;28;20102;-57
2021/11/21 04:26:32;;;;;;;0.25;0.25;;;;;;;5.86;100.00;100151.41;5065827;28;20031;-57
2021/11/21 04:29:35;;;;;;;0.40;0.40;;;;;;;5.74;100.00;100149.31;5072146;28;20074;-57
2021/11/21 04:32:39;;;;;;;0.40;0.40;;;;;;;5.68;100.00;100151.06;5057207;28;20707;-57
2021/11/21 04:35:42;;;;;;;0.25;0.25;;;;;;;5.63;100.00;100159.09;5060634;28;20105;-57
2021/11/21 04:38:45;;;;;;;0.30;0.30;;;;;;;5.67;100.00;100155.03;5064796;28;20085;-57
2021/11/21 04:41:48;;;;;;;0.50;0.50;;;;;;;5.63;100.00;100154.34;5062059;28;20097;-57
2021/11/21 04:44:51;;;;;;;0.30;0.30;;;;;;;5.57;100.00;100161.59;5072177;28;20097;-56
2021/11/21 04:47:54;;;;;;;0.10;0.10;;;;;;;5.53;100.00;100160.91;5071511;28;20086;-57
2021/11/21 04:50:57;;;;;;;3.88;0.60;;;;;;;5.49;100.00;100148.41;5072233;28;20035;-57
2021/11/21 04:54:03;;;;;;;0.40;0.40;;;;;;;5.39;100.00;100162.06;5065544;28;20564;-57
2021/11/21 04:57:07;;;;;;;0.32;0.32;;;;;;;5.39;100.00;100173.09;5065708;28;20054;-57
2021/11/21 05:00:18;;;;;;;0.20;0.20;;;;;;;5.43;100.00;100159.22;5059466;28;20074;-57
2021/11/21 05:03:21;;;;;;;0.38;0.30;;;;;;;5.36;100.00;100162.16;5056004;28;20500;-57
2021/11/21 05:06:23;;;;;;;0.30;0.30;;;;;;;5.31;100.00;100170.94;5052410;28;20027;-57
2021/11/21 05:09:26;;;;;;;8.02;0.77;;;;;;;5.20;100.00;100170.44;5068795;28;20341;-57
2021/11/21 05:12:30;;;;;;;0.90;0.82;;;;;;;5.20;100.00;100165.69;5052701;28;20071;-57
2021/11/21 05:15:33;;;;;;;0.35;0.35;;;;;;;5.13;100.00;100171.38;5068456;28;20581;-57
2021/11/21 05:18:36;;;;;;;0.55;0.52;;;;;;;5.20;100.00;100170.44;5062362;28;20389;-57
2021/11/21 05:21:40;;;;;;;0.73;0.73;;;;;;;5.14;100.00;100172.16;5080314;28;20032;-57
2021/11/21 05:24:43;;;;;;;0.40;0.40;;;;;;;5.11;100.00;100182.06;5062144;28;20099;-57
2021/11/21 05:27:49;;;;;;;0.40;0.40;;;;;;;5.12;100.00;100175.34;5070337;28;20031;-57
2021/11/21 05:30:53;;;;;;;0.55;0.55;;;;;;;5.05;100.00;100181.03;5063802;28;20043;-57
2021/11/21 05:33:55;;;;;;;0.20;0.20;;;;;;;4.99;100.00;100176.47;5052525;28;20027;-57
2021/11/21 05:36:58;;;;;;;4.43;0.98;;;;;;;4.97;100.00;100173.34;5063660;28;20081;-56
2021/11/21 05:40:06;;;;;;;0.17;0.17;;;;;;;4.92;100.00;100171.88;5072568;28;20377;-57
2021/11/21 05:43:09;;;;;;;0.75;0.65;;;;;;;4.99;100.00;100176.47;5058529;28;20726;-57
2021/11/21 05:46:13;;;;;;;0.30;0.30;;;;;;;4.93;100.00;100178.19;5056779;28;20523;-57
2021/11/21 05:49:16;;;;;;;0.30;0.30;;;;;;;4.95;100.00;100175.78;5058547;28;20090;-57
2021/11/21 05:52:24;;;;;;;0.40;0.40;;;;;;;4.90;100.00;100179.81;5058897;28;20051;-57
2021/11/21 05:55:32;;;;;;;0.38;0.38;;;;;;;4.82;100.00;100183.16;5088798;28;20135;-57
2021/11/21 05:58:36;;;;;;;0.40;0.40;;;;;;;4.92;100.00;100182.13;5070842;28;20051;-57
2021/11/21 06:01:45;;;;;;;0.38;0.38;;;;;;;4.99;100.00;100188.28;5075739;28;20698;-57
2021/11/21 06:04:51;;;;;;;0.40;0.40;;;;;;;5.01;100.00;100190.59;5043008;28;20448;-52
2021/11/21 06:07:54;;;;;;;0.47;0.47;;;;;;;4.85;100.00;100188.59;5043019;28;20044;-52
2021/11/21 06:10:57;;;;;;;0.50;0.50;;;;;;;4.83;100.00;100193.00;5047957;28;20035;-51
2021/11/21 06:14:00;;;;;;;0.20;0.20;;;;;;;4.81;100.00;100203.69;5046933;28;20167;-51
2021/11/21 06:17:04;;;;;;;1.50;1.30;;;;;;;4.77;100.00;100197.47;5047437;28;20043;-51
2021/11/21 06:20:08;;;;;;;0.50;0.50;;;;;;;4.74;100.00;100192.81;5047693;28;20063;-51
2021/11/21 06:23:12;;;;;;;0.85;0.85;;;;;;;4.75;100.00;100199.88;5050193;28;20169;-52
2021/11/21 06:26:20;;;;;;;0.32;0.32;;;;;;;4.74;100.00;100192.81;5050586;28;20507;-51
2021/11/21 06:29:33;;;;;;;0.40;0.40;;;;;;;4.72;100.00;100195.22;5064044;28;20047;-52
2021/11/21 06:32:40;;;;;;;0.40;0.40;;;;;;;4.74;100.00;100196.34;5054005;28;20039;-52
2021/11/21 06:35:50;;;;;;;0.45;0.45;;;;;;;4.80;100.00;100202.13;5049450;28;20059;-57
2021/11/21 06:39:00;;;;;;;0.63;0.63;;;;;;;4.84;100.00;100208.34;5065622;28;20034;-57
2021/11/21 06:42:15;;;;;;;0.57;0.57;;;;;;;4.90;100.00;100217.66;5059112;28;20527;-56
2021/11/21 06:45:21;;;;;;;0.50;0.50;;;;;;;4.97;100.00;100217.50;5046689;28;20091;-51
2021/11/21 06:48:24;;;;;;;0.90;0.90;;;;;;;5.04;100.00;100211.84;5045598;28;20103;-51
2021/11/21 06:51:29;;;;;;;0.60;0.60;;;;;;;5.04;100.00;100211.84;5044797;28;20032;-51
2021/11/21 06:54:32;;;;;;;0.32;0.32;;;;;;;5.10;100.00;100210.91;5044885;28;20044;-52
2021/11/21 06:57:36;;;;;;;0.20;0.20;;;;;;;5.04;100.00;100220.13;5046110;28;20039;-51
2021/11/21 07:00:38;;;;;;;0.40;0.40;;;;;;;5.07;100.00;100222.78;5046346;28;20102;-51
2021/11/21 07:03:41;;;;;;;10.75;1.48;;;;;;;5.07;100.00;100222.00;5042738;28;20040;-51
2021/11/21 07:06:46;;;;;;;0.55;0.55;;;;;;;5.00;100.00;100233.22;5043382;28;20028;-51
2021/11/21 07:09:49;;;;;;;0.50;0.50;;;;;;;4.99;100.00;100242.69;5045456;28;20105;-51
2021/11/21 07:12:52;;;;;;;0.45;0.45;;;;;;;4.92;100.00;100240.09;5046882;28;20039;-52
2021/11/21 07:16:00;;;;;;;0.60;0.60;;;;;;;4.89;100.00;100232.69;5046982;28;20771;-53
2021/11/21 07:19:06;;;;;;;0.40;0.40;;;;;;;4.84;100.00;100241.44;5062090;28;20067;-56
2021/11/21 07:22:11;;;;;;;1.27;0.47;;;;;;;4.74;100.00;100242.47;5078410;28;20104;-56
2021/11/21 07:25:24;;;;;;;0.70;0.70;;;;;;;4.78;100.00;100248.69;5062759;28;20643;-57
2021/11/21 07:28:46;;;;;;;0.47;0.47;;;;;;;4.80;100.00;100257.31;5073630;28;20043;-57
2021/11/21 07:31:57;;;;;;;1.02;0.40;;;;;;;4.76;100.00;100257.41;5046628;28;20124;-52
2021/11/21 07:35:00;;;;;;;0.40;0.40;;;;;;;4.72;100.00;100264.94;5044056;28;20073;-51
2021/11/21 07:38:03;;;;;;;4.18;0.95;;;;;;;4.69;100.00;100267.78;5045698;28;20039;-52
2021/11/21 07:41:07;;;;;;;0.73;0.73;;;;;;;4.62;100.00;100263.19;5039267;28;20177;-52
2021/11/21 07:44:11;;;;;;;0.65;0.65;;;;;;;4.62;100.00;100257.69;5038248;28;20539;-52
2021/11/21 07:47:14;;;;;;;0.40;0.40;;;;;;;4.61;100.00;100256.13;5036813;28;20497;-51
2021/11/21 07:50:18;;;;;;;0.77;0.77;;;;;;;4.63;100.00;100272.25;5036081;28;20098;-52
2021/11/21 07:53:21;;;;;;;0.40;0.40;;;;;;;4.63;100.00;100282.06;5040801;28;20508;-51
2021/11/21 07:56:26;;;;;;;1.08;1.08;;;;;;;4.63;100.00;100283.28;5052606;28;20547;-52
2021/11/21 07:59:30;;;;;;;0.30;0.30;;;;;;;4.69;100.00;100300.88;5039284;28;20036;-52
2021/11/21 08:02:34;;;;;;;0.30;0.30;;;;;;;4.69;100.00;100306.41;5037704;28;20569;-52
2021/11/21 08:05:38;;;;;;;1.85;0.63;;;;;;;4.66;100.00;100323.81;5038911;28;20044;-53
2021/11/21 08:08:41;;;;;;;2.42;1.45;;;;;;;4.70;100.00;100330.03;5039102;28;20384;-52
2021/11/21 08:11:44;;;;;;;11.57;2.00;;;;;;;4.72;100.00;100333.16;5038496;28;20098;-52
2021/11/21 08:14:47;;;;;;;16.63;1.77;;;;;;;4.75;100.00;100327.56;5037307;28;20597;-52
2021/11/21 08:17:51;;;;;;;2.40;1.50;;;;;;;4.74;100.00;100342.56;5037043;28;20728;-51
2021/11/21 08:20:54;;;;;;;17.95;3.05;;;;;;;4.74;100.00;100347.31;5045158;28;20055;-52
2021/11/21 08:23:56;;;;;;;1.98;1.88;;;;;;;4.69;100.00;100345.03;5055258;28;20035;-52
2021/11/21 08:27:02;;;;;;;0.85;0.85;;;;;;;4.69;100.00;100345.81;5053164;28;20873;-52
2021/11/21 08:30:08;;;;;;;1.98;1.35;;;;;;;4.73;100.00;100345.72;5054546;28;20031;-52
2021/11/21 08:33:12;;;;;;;4.28;0.93;;;;;;;4.77;100.00;100349.19;5056334;28;20107;-51
2021/11/21 08:36:14;;;;;;;37.42;2.00;;;;;;;4.83;100.00;100339.25;5060250;28;20089;-52
2021/11/21 08:39:21;;;;;;;24.95;6.15;;;;;;;4.82;100.00;100343.97;5041480;28;20031;-52
2021/11/21 08:42:24;;;;;;;10.10;5.55;;;;;;;4.87;100.00;100345.47;5041373;28;20063;-52
2021/11/21 08:45:29;;;;;;;8.68;5.00;;;;;;;4.88;100.00;100347.78;5042689;28;20116;-52
2021/11/21 08:48:32;;;;;;;2.45;2.20;;;;;;;4.92;100.00;100348.50;5042073;28;20123;-52
2021/11/21 08:51:35;;;;;;;4.63;2.40;;;;;;;4.94;100.00;100345.28;5041205;28;20730;-52
2021/11/21 08:54:39;;;;;;;1.00;0.73;;;;;;;4.98;100.00;100346.78;5044010;28;20117;-51
2021/11/21 08:57:45;;;;;;;0.90;0.90;;;;;;;5.00;100.00;100355.41;5042195;28;20044;-51
2021/11/21 09:00:59;;;;;;;1.05;1.05;;;;;;;5.06;100.00;100352.94;5049476;28;20071;-51
2021/11/21 09:04:06;;;;;;;0.45;0.45;;;;;;;5.13;100.00;100352.81;5051344;28;20051;-51
2021/11/21 09:07:09;;;;;;;0.75;0.73;;;;;;;5.22;100.00;100362.06;5048551;28;20097;-52
2021/11/21 09:10:19;;;;;;;0.50;0.50;;;;;;;5.38;100.00;100364.88;5049675;28;20236;-52
2021/11/21 09:13:24;;;;;;;;;;;;;;;5.49;100.00;100353.59;5054151;28;20117;-53
2021/11/21 09:16:27;;;;;;;0.20;0.20;;;;;;;5.60;100.00;100367.16;5047270;28;20423;-58
2021/11/21 09:19:30;;;;;;;0.60;0.60;;;;;;;5.60;100.00;100359.66;5046977;28;20288;-57
2021/11/21 09:22:34;;;;;;;11.65;0.77;;;;;;;5.72;100.00;100361.72;5052079;28;20039;-55
2021/11/21 09:25:39;;;;;;;0.30;0.30;;;;;;;5.79;100.00;100375.38;5052279;28;20078;-55
2021/11/21 09:28:43;;;;;;;0.55;0.55;;;;;;;5.85;100.00;100376.47;5053019;28;20027;-57
2021/11/21 09:31:46;;;;;;;0.38;0.35;;;;;;;5.90;100.00;100384.25;5046941;28;20553;-57
2021/11/21 09:34:49;;;;;;;0.40;0.40;;;;;;;6.06;100.00;100400.81;5046125;28;20106;-55
2021/11/21 09:37:52;;;;;;;0.32;0.32;;;;;;;6.15;100.00;100400.22;5046684;28;20508;-56
2021/11/21 09:40:55;;;;;;;0.20;0.20;;;;;;;6.28;100.00;100403.84;5047999;28;20495;-55
2021/11/21 09:43:59;;;;;;;0.70;0.70;;;;;;;6.39;100.00;100403.59;5048646;28;20503;-55
2021/11/21 09:47:02;;;;;;;0.30;0.30;;;;;;;6.49;100.00;100402.53;5061428;28;20134;-56
2021/11/21 09:50:11;;;;;;;0.13;0.13;;;;;;;6.49;100.00;100403.34;5042656;28;20106;-55
2021/11/21 09:53:14;;;;;;;0.25;0.25;;;;;;;6.58;100.00;100402.72;5041714;28;20200;-56
2021/11/21 09:56:17;;;;;;;1.33;0.65;;;;;;;6.58;100.00;100416.53;5052729;28;20788;-55
2021/11/21 09:59:50;;;;;;;0.28;0.28;;;;;;;6.61;100.00;100415.66;5058413;28;20086;-55
2021/11/21 10:02:59;;;;;;;15.95;1.48;;;;;;;6.71;100.00;100426.44;5056550;28;20121;-55
2021/11/21 10:06:06;;;;;;;0.30;0.30;;;;;;;6.80;100.00;100425.81;5056453;28;20406;-56
2021/11/21 10:09:09;;;;;;;3.40;0.98;;;;;;;6.88;100.00;100435.50;5042542;28;20455;-55
2021/11/21 10:12:12;;;;;;;0.40;0.40;;;;;;;6.84;100.00;100434.84;5042892;28;20032;-55
2021/11/21 10:15:19;;;;;;;1.27;0.30;;;;;;;6.84;100.00;100434.84;5058394;28;20102;-55
2021/11/21 10:18:23;;;;;;;0.40;0.30;;;;;;;6.84;100.00;100440.38;5054389;28;20535;-55
2021/11/21 10:21:29;;;;;;;0.40;0.40;;;;;;;6.89;100.00;100443.38;5050826;28;20110;-55
2021/11/21 10:24:32;;;;;;;0.38;0.32;;;;;;;6.99;100.00;100441.53;5042543;28;20109;-53
2021/11/21 10:27:35;;;;;;;4.63;0.77;;;;;;;6.99;100.00;100444.31;5060612;28;20515;-55
2021/11/21 10:30:59;;;;;;;0.45;0.43;;;;;;;7.00;100.00;100462.47;5051961;28;20562;-55
2021/11/21 10:34:04;;;;;;;0.25;0.25;;;;;;;6.91;100.00;100465.06;5047511;28;20047;-55
2021/11/21 10:37:08;;;;;;;0.25;0.25;;;;;;;6.98;100.00;100462.13;5062268;28;20075;-58
2021/11/21 10:40:17;;;;;;;0.20;0.20;;;;;;;7.06;100.00;100463.47;5042595;28;20233;-56
2021/11/21 10:43:20;;;;;;;0.32;0.32;;;;;;;7.12;100.00;100458.22;5057491;28;20114;-55
2021/11/21 10:46:37;;;;;;;2.15;0.60;;;;;;;7.22;100.00;100460.69;5055251;28;20051;-55
2021/11/21 10:49:40;;;;;;;0.15;0.15;;;;;;;7.23;100.00;100467.78;5042589;28;20078;-54
2021/11/21 10:52:46;;;;;;;0.90;0.40;;;;;;;7.25;100.00;100473.66;5052346;28;20039;-55
2021/11/21 10:56:09;;;;;;;0.50;0.50;;;;;;;7.40;100.00;100471.28;5045923;28;20652;-55
2021/11/21 10:59:13;;;;;;;21.83;0.63;;;;;;;7.51;100.00;100478.03;5064497;28;20047;-55
2021/11/21 11:02:19;;;;;;;0.20;0.20;;;;;;;7.61;100.00;100465.91;5046054;28;20089;-53
2021/11/21 11:05:25;;;;;;;0.20;0.20;;;;;;;7.68;100.00;100469.66;5059017;28;20117;-55
2021/11/21 11:08:31;;;;;;;0.35;0.35;;;;;;;7.75;100.00;100475.00;5063474;28;20519;-55
2021/11/21 11:11:35;;;;;;;0.50;0.50;;;;;;;7.72;100.00;100464.78;5062682;28;20490;-55
2021/11/21 11:14:39;;;;;;;0.70;0.32;;;;;;;7.81;100.00;100464.94;5063973;28;20047;-56
2021/11/21 11:17:43;;;;;;;0.40;0.32;;;;;;;7.91;100.00;100458.28;5047561;28;20075;-54
2021/11/21 11:20:48;;;;;;;1.13;0.60;;;;;;;7.94;100.00;100471.25;5041460;28;20356;-56
2021/11/21 11:23:52;;;;;;;0.70;0.70;;;;;;;7.90;100.00;100471.38;5058488;28;20113;-54
2021/11/21 11:27:08;;;;;;;0.65;0.10;;;;;;;7.89;100.00;100467.03;5053359;28;20063;-55
2021/11/21 11:30:13;;;;;;;0.30;0.30;;;;;;;8.00;100.00;100458.38;5059150;28;20043;-55
2021/11/21 11:33:18;;;;;;;1.38;0.65;;;;;;;8.08;100.00;100474.38;5042269;28;20247;-55
2021/11/21 11:36:28;;;;;;;0.85;0.68;;;;;;;8.13;100.00;100467.50;5042522;28;20114;-54
2021/11/21 11:39:39;;;;;;;5.35;0.50;;;;;;;8.25;100.00;100469.50;5055677;28;20055;-55
2021/11/21 11:42:42;;;;;;;9.48;0.85;;;;;;;8.38;100.00;100473.84;5055139;28;20141;-54
2021/11/21 11:45:47;;;;;;;0.47;0.45;;;;;;;8.45;100.00;100472.81;5057679;28;20472;-55
2021/11/21 11:48:59;;;;;;;1.38;0.47;;;;;;;8.49;100.00;100479.03;5061821;28;20173;-55
2021/11/21 11:52:02;;;;;;;0.17;0.17;;;;;;;8.60;100.00;100471.13;5044522;28;20054;-54
2021/11/21 11:55:10;;;;;;;0.20;0.20;;;;;;;8.68;100.00;100464.16;5062127;28;20364;-55
2021/11/21 11:58:51;;;;;;;0.20;0.20;;;;;;;8.85;100.00;100462.75;5043153;28;20373;-55
2021/11/21 12:02:19;;;;;;;0.20;0.20;;;;;;;8.94;100.00;100465.59;5042536;28;20098;-57
2021/11/21 12:05:34;;;;;;;0.40;0.40;;;;;;;9.18;100.00;100469.50;5041455;28;20156;-55
2021/11/21 12:08:42;;;;;;;0.35;0.35;;;;;;;9.18;100.00;100467.97;5054298;28;20390;-55
2021/11/21 12:12:05;;;;;;;0.30;0.20;;;;;;;9.17;100.00;100467.19;5046342;28;20039;-55
2021/11/21 12:15:27;;;;;;;0.30;0.30;;;;;;;9.18;100.00;100469.50;5043419;28;20102;-55
2021/11/21 12:18:51;;;;;;;0.17;0.17;;;;;;;9.15;100.00;100470.44;5053266;28;20154;-55
2021/11/21 12:21:58;;;;;;;0.65;0.30;;;;;;;9.15;100.00;100475.22;5045936;28;20552;-56
2021/11/21 12:25:26;;;;;;;0.10;0.10;;;;;;;8.97;100.00;100475.81;5064831;28;20035;-55
2021/11/21 12:28:58;;;;;;;0.20;0.20;;;;;;;8.89;100.00;100468.19;5064564;28;20040;-55
2021/11/21 12:32:28;;;;;;;0.10;0.10;;;;;;;8.92;100.00;100470.06;5064511;28;20231;-55
2021/11/21 12:35:40;;;;;;;0.25;0.25;;;;;;;8.91;100.00;100477.63;5062176;28;20102;-54
2021/11/21 12:38:43;;;;;;;0.20;0.20;;;;;;;8.91;100.00;100476.84;5039201;28;20068;-59
2021/11/21 12:42:12;;;;;;;3.58;0.85;;;;;;;8.77;100.00;100480.13;5039569;28;20411;-56
2021/11/21 12:45:19;;;;;;;0.20;0.20;;;;;;;8.75;100.00;100475.00;5040369;28;20570;-55
2021/11/21 12:48:27;;;;;;;0.20;0.20;;;;;;;8.88;100.00;100478.50;5040208;28;20088;-55
2021/11/21 12:51:30;;;;;;;1.45;0.40;;;;;;;9.04;100.00;100472.81;5040849;28;20051;-56
2021/11/21 12:54:38;;;;;;;0.38;0.38;;;;;;;9.33;100.00;100474.59;5048322;28;20126;-55
2021/11/21 12:57:48;;;;;;;1.88;0.45;;;;;;;9.64;100.00;100487.31;5033203;28;20331;-55
2021/11/21 13:00:54;;;;;;;0.20;0.20;;;;;;;10.02;100.00;100477.94;5032431;28;20117;-55
2021/11/21 13:03:58;;;;;;;2.78;0.40;;;;;;;10.14;100.00;100477.88;5032467;28;20596;-56
2021/11/21 13:07:21;;;;;;;0.45;0.45;;;;;;;10.17;100.00;100482.53;5032573;28;20405;-55
2021/11/21 13:10:25;;;;;;;0.40;0.40;;;;;;;10.07;100.00;100482.91;5039414;28;20027;-56
2021/11/21 13:13:31;;;;;;;0.20;0.20;;;;;;;9.85;100.00;100477.41;5058152;28;20081;-54
2021/11/21 13:16:35;;;;;;;0.77;0.40;;;;;;;9.49;100.00;100482.72;5051643;28;20160;-55
2021/11/21 13:19:38;;;;;;;0.45;0.45;;;;;;;9.34;100.00;100476.13;5042117;28;20807;-55
2021/11/21 13:22:48;;;;;;;0.70;0.20;;;;;;;9.23;100.00;100472.94;5048679;28;20294;-51
2021/11/21 13:25:58;;;;;;;0.40;0.40;;;;;;;9.21;100.00;100480.94;5041644;28;20043;-54
2021/11/21 13:29:04;;;;;;;0.20;0.20;;;;;;;9.15;100.00;100470.44;5041905;28;20344;-56
2021/11/21 13:32:06;;;;;;;0.30;0.30;;;;;;;9.20;100.00;100484.97;5042699;28;20090;-56
2021/11/21 13:35:19;;;;;;;0.10;0.10;;;;;;;9.19;100.00;100478.63;5041246;28;20052;-55
2021/11/21 13:38:23;;;;;;;0.20;0.10;;;;;;;9.24;100.00;100488.41;5039882;28;20118;-54
2021/11/21 13:41:28;;;;;;;1.13;0.30;;;;;;;9.14;100.00;100485.53;5040257;28;20507;-55
2021/11/21 13:44:36;;;;;;;0.10;0.10;;;;;;;9.22;100.00;100486.09;5039546;28;20125;-54
2021/11/21 13:47:41;;;;;;;0.10;0.10;;;;;;;9.38;100.00;100487.88;5049034;28;20048;-54
2021/11/21 13:50:46;;;;;;;0.20;0.20;;;;;;;9.54;100.00;100484.91;5040286;28;20086;-55
2021/11/21 13:53:50;;;;;;;3.72;0.25;;;;;;;9.64;100.00;100489.31;5039790;28;20344;-55
2021/11/21 13:56:54;;;;;;;0.20;0.20;;;;;;;9.64;100.00;100489.31;5050039;28;20137;-53
2021/11/21 14:00:00;;;;;;;0.65;0.60;;;;;;;9.65;100.00;100486.09;5040324;28;20043;-60
2021/11/21 14:03:05;;;;;;;0.40;0.40;;;;;;;9.49;100.00;100491.84;5040398;28;20113;-57
2021/11/21 14:06:10;;;;;;;0.43;0.30;;;;;;;9.48;100.00;100489.53;5047320;28;20258;-56
2021/11/21 14:09:16;;;;;;;0.10;0.10;;;;;;;9.40;100.00;100479.91;5070844;28;20121;-57
2021/11/21 14:12:25;;;;;;;7.00;0.50;;;;;;;9.54;100.00;100501.59;5069906;28;20047;-47
2021/11/21 14:15:28;;;;;;;1.48;0.47;;;;;;;9.61;100.00;100502.13;5071262;28;20166;-47
2021/11/21 14:18:39;;;;;;;0.68;0.28;;;;;;;9.79;100.00;100507.78;5071489;28;20496;-57
2021/11/21 14:21:42;;;;;;;0.40;0.40;;;;;;;9.87;100.00;100509.06;5071416;28;20103;-55
2021/11/21 14:24:45;;;;;;;0.20;0.20;;;;;;;9.78;100.00;100513.81;5070916;28;20528;-55
2021/11/21 14:28:01;;;;;;;0.63;0.50;;;;;;;9.62;100.00;100512.00;5072286;28;20055;-54
2021/11/21 14:31:05;;;;;;;2.05;0.45;;;;;;;9.61;100.00;100518.81;5071953;28;20085;-54
2021/11/21 14:34:12;;;;;;;0.35;0.35;;;;;;;9.73;100.00;100522.75;5072323;28;20047;-54
2021/11/21 14:37:17;;;;;;;0.40;0.40;;;;;;;9.86;100.00;100529.00;5072332;28;20539;-54
2021/11/21 14:40:20;;;;;;;0.40;0.40;;;;;;;9.90;100.00;100529.66;5071915;28;20063;-54
2021/11/21 14:43:23;;;;;;;1.75;0.75;;;;;;;9.96;100.00;100522.28;5071684;28;20246;-55
2021/11/21 14:46:29;;;;;;;10.00;0.77;;;;;;;9.99;100.00;100529.72;5072607;28;20036;-54
2021/11/21 14:49:35;;;;;;;0.15;0.15;;;;;;;9.86;100.00;100531.78;5072298;28;20090;-55
2021/11/21 14:52:39;;;;;;;0.65;0.30;;;;;;;9.94;100.00;100541.41;5076753;28;20047;-55